Аэропорт: Кокшетау. Кокшетау

ICAO: UACK

METAR:
2019/03/26 11:30
UACK 261130Z 30003MPS 9999 -SHSNRA OVC021CB 00/00 Q1016 R20/090070 NOSIG RMK QFE738/0985
METAR:
2014/11/02 12:00
TAF UACK 021140Z 0212/0221 CNL